Time;durP1;ratioP1;P1;durP2;ratioP2;P2;SDS_P1;SDS_P2;PMS_P1;PMS_P2;Temp;Humidity;BMP_temperature;BMP_pressure;BME280_temperature;BME280_humidity;BME280_pressure;Samples;Min_cycle;Max_cycle;Signal;HPM_P1;HPM_P2
2022/05/18 00:00:56;;;;;;;10.35;5.30;;;17.60;99.90;;;;;;5017230;28;20034;-63
2022/05/18 00:03:30;;;;;;;11.25;4.53;;;17.60;99.90;;;;;;5017053;28;20063;-62
2022/05/18 00:05:58;;;;;;;7.53;5.10;;;17.40;99.90;;;;;;5000417;28;20414;-63
2022/05/18 00:08:24;;;;;;;9.60;5.05;;;17.50;99.90;;;;;;5017781;28;20064;-62
2022/05/18 00:10:50;;;;;;;9.57;5.30;;;17.50;99.90;;;;;;5000857;28;20046;-62
2022/05/18 00:13:16;;;;;;;6.07;4.18;;;17.20;99.90;;;;;;5017014;28;20084;-62
2022/05/18 00:15:43;;;;;;;8.27;4.60;;;17.40;99.90;;;;;;5016522;28;20060;-63
2022/05/18 00:18:09;;;;;;;7.60;5.18;;;17.60;99.90;;;;;;5016642;28;20038;-62
2022/05/18 00:20:34;;;;;;;9.95;5.10;;;17.30;99.90;;;;;;5018009;28;20041;-63
2022/05/18 00:23:02;;;;;;;9.18;5.82;;;17.30;99.90;;;;;;5017496;28;20085;-62
2022/05/18 00:25:31;;;;;;;13.35;5.82;;;17.70;99.90;;;;;;5000493;28;20034;-63
2022/05/18 00:27:57;;;;;;;11.85;5.57;;;17.50;99.90;;;;;;4999491;28;20486;-63
2022/05/18 00:30:24;;;;;;;8.45;4.82;;;17.60;99.90;;;;;;5017221;28;20073;-62
2022/05/18 00:32:50;;;;;;;10.40;5.40;;;17.50;99.90;;;;;;5017373;28;20128;-62
2022/05/18 00:35:17;;;;;;;8.25;5.47;;;17.40;99.90;;;;;;5017165;28;20053;-63
2022/05/18 00:37:43;;;;;;;7.35;4.82;;;17.30;99.90;;;;;;5016532;28;20084;-62
2022/05/18 00:40:10;;;;;;;9.48;5.63;;;17.30;99.90;;;;;;4999748;28;20081;-62
2022/05/18 00:42:36;;;;;;;9.43;5.70;;;17.40;99.90;;;;;;5017315;28;20050;-62
2022/05/18 00:45:03;;;;;;;8.30;5.07;;;19.00;99.90;;;;;;5016639;28;20049;-62
2022/05/18 00:47:28;;;;;;;7.90;4.85;;;16.40;99.90;;;;;;4999672;28;20614;-62
2022/05/18 00:50:06;;;;;;;9.55;4.90;;;17.40;99.90;;;;;;4999535;28;20041;-63
2022/05/18 00:52:36;;;;;;;10.07;5.30;;;17.40;99.90;;;;;;5015582;28;20092;-62
2022/05/18 00:55:03;;;;;;;8.73;4.85;;;17.30;99.90;;;;;;4999479;28;20393;-62
2022/05/18 00:57:37;;;;;;;11.60;4.75;;;17.30;99.90;;;;;;4998709;28;20101;-62
2022/05/18 01:00:09;;;;;;;6.95;4.75;;;17.20;99.90;;;;;;5016316;28;20122;-62
2022/05/18 01:02:38;;;;;;;6.18;4.85;;;17.20;99.90;;;;;;4998828;28;20072;-62
2022/05/18 01:05:08;;;;;;;11.05;5.45;;;17.20;99.90;;;;;;5016773;28;20034;-62
2022/05/18 01:07:37;;;;;;;9.43;5.20;;;17.20;99.90;;;;;;5016844;28;20045;-62
2022/05/18 01:10:06;;;;;;;7.20;4.82;;;17.20;99.90;;;;;;4999527;28;20126;-62
2022/05/18 01:12:32;;;;;;;7.75;4.72;;;17.20;99.90;;;;;;5008410;28;20524;-62
2022/05/18 01:15:02;;;;;;;10.45;5.00;;;17.10;99.90;;;;;;4996933;28;20050;-62
2022/05/18 01:17:30;;;;;;;6.72;4.57;;;17.20;99.90;;;;;;4980404;28;20073;-62
2022/05/18 01:19:58;;;;;;;12.40;6.63;;;17.20;99.90;;;;;;4979677;28;20038;-62
2022/05/18 01:22:36;;;;;;;8.25;5.22;;;16.90;99.90;;;;;;4995731;28;20400;-61
2022/05/18 01:25:39;;;;;;;6.93;4.85;;;17.00;99.90;;;;;;4995504;28;20520;-61
2022/05/18 01:28:07;;;;;;;8.70;5.78;;;16.90;99.90;;;;;;4996870;28;20038;-62
2022/05/18 01:30:34;;;;;;;10.23;5.47;;;16.90;99.90;;;;;;4997073;28;20081;-62
2022/05/18 01:33:05;;;;;;;9.00;5.32;;;17.00;99.90;;;;;;4994918;28;20125;-62
2022/05/18 01:35:32;;;;;;;8.98;5.40;;;17.00;99.90;;;;;;4995779;28;20433;-62
2022/05/18 01:37:59;;;;;;;9.40;5.10;;;16.90;99.90;;;;;;4995229;28;20082;-62
2022/05/18 01:41:06;;;;;;;6.80;5.00;;;16.90;99.90;;;;;;4994201;28;20484;-62
2022/05/18 01:43:46;;;;;;;7.78;5.13;;;16.90;99.90;;;;;;4962851;28;20050;-62
2022/05/18 01:46:14;;;;;;;10.55;6.53;;;17.10;99.90;;;;;;4990371;28;20046;-62
2022/05/18 01:48:45;;;;;;;8.65;5.70;;;16.80;99.90;;;;;;5015412;28;20061;-62
2022/05/18 01:51:14;;;;;;;9.43;6.15;;;16.80;99.90;;;;;;5014872;28;20100;-62
2022/05/18 01:53:40;;;;;;;7.55;5.70;;;16.70;99.90;;;;;;5015734;28;20519;-62
2022/05/18 01:56:08;;;;;;;9.32;6.43;;;16.60;99.90;;;;;;4997126;28;20054;-62
2022/05/18 01:58:34;;;;;;;9.25;5.10;;;;;;;;;;5016236;28;20085;-62
2022/05/18 02:01:02;;;;;;;10.93;5.85;;;16.70;99.90;;;;;;5015538;28;20095;-62
2022/05/18 02:03:29;;;;;;;10.30;6.40;;;16.70;99.90;;;;;;4998108;28;20104;-62
2022/05/18 02:05:54;;;;;;;8.15;5.35;;;16.60;99.90;;;;;;4998090;28;20042;-63
2022/05/18 02:08:22;;;;;;;8.82;5.53;;;16.30;99.90;;;;;;5014845;28;20041;-62
2022/05/18 02:10:48;;;;;;;12.75;6.22;;;16.40;99.90;;;;;;4997683;28;20037;-62
2022/05/18 02:13:14;;;;;;;11.63;6.35;;;16.40;99.90;;;;;;5016030;28;20045;-63
2022/05/18 02:15:41;;;;;;;7.95;6.05;;;16.20;99.90;;;;;;4978713;28;20404;-62
2022/05/18 02:18:06;;;;;;;7.43;5.43;;;16.30;99.90;;;;;;5010915;28;20050;-62
2022/05/18 02:20:33;;;;;;;11.27;6.60;;;16.20;99.90;;;;;;5010624;28;20042;-62
2022/05/18 02:22:59;;;;;;;6.90;5.10;;;16.20;99.90;;;;;;4977904;28;20481;-62
2022/05/18 02:25:26;;;;;;;10.35;6.43;;;16.30;99.90;;;;;;4995551;28;20085;-62
2022/05/18 02:27:52;;;;;;;10.13;6.43;;;16.10;99.90;;;;;;4995622;28;20417;-62
2022/05/18 02:30:18;;;;;;;9.88;6.10;;;16.50;99.90;;;;;;4994634;28;20050;-62
2022/05/18 02:32:44;;;;;;;12.85;6.18;;;16.30;99.90;;;;;;4995288;28;20046;-62
2022/05/18 02:35:10;;;;;;;10.10;5.40;;;16.30;99.90;;;;;;4995573;28;20069;-62
2022/05/18 02:37:36;;;;;;;13.73;7.10;;;16.10;99.90;;;;;;4994998;28;20039;-62
2022/05/18 02:40:02;;;;;;;12.95;7.05;;;16.00;99.90;;;;;;4995300;28;20089;-63
2022/05/18 02:42:27;;;;;;;11.32;6.35;;;16.00;99.90;;;;;;4995543;28;20555;-62
2022/05/18 02:44:53;;;;;;;10.85;6.10;;;16.00;99.90;;;;;;4996282;28;20034;-62
2022/05/18 02:47:20;;;;;;;9.18;6.47;;;15.90;99.90;;;;;;5010960;28;20477;-62
2022/05/18 02:49:46;;;;;;;12.88;7.30;;;16.10;99.90;;;;;;4994751;28;20069;-62
2022/05/18 02:52:12;;;;;;;11.52;7.18;;;15.70;99.90;;;;;;4999650;28;20046;-63
2022/05/18 02:57:21;;;;;;;11.43;7.03;;;15.70;99.90;;;;;;4999106;28;20042;-62
2022/05/18 02:59:47;;;;;;;12.27;7.05;;;15.80;99.90;;;;;;5013905;28;20045;-62
2022/05/18 03:02:13;;;;;;;9.90;6.22;;;15.80;99.90;;;;;;4999615;28;20038;-62
2022/05/18 03:04:39;;;;;;;9.98;7.68;;;15.60;99.90;;;;;;4998523;28;20034;-62
2022/05/18 03:07:05;;;;;;;11.57;7.60;;;15.80;99.90;;;;;;4998830;28;20042;-62
2022/05/18 03:09:31;;;;;;;10.93;7.30;;;15.90;99.90;;;;;;4998281;28;20156;-62
2022/05/18 03:11:57;;;;;;;10.82;7.38;;;15.90;99.90;;;;;;5000372;28;20497;-63
2022/05/18 03:14:23;;;;;;;9.40;7.15;;;15.90;99.90;;;;;;4998612;28;20120;-62
2022/05/18 03:16:49;;;;;;;11.90;7.88;;;15.70;99.90;;;;;;4998050;28;20049;-62
2022/05/18 03:19:15;;;;;;;14.05;7.10;;;15.70;99.90;;;;;;4999305;28;20577;-62
2022/05/18 03:24:26;;;;;;;12.18;8.35;;;;;;;;;;4998169;28;20050;-62
2022/05/18 03:26:52;;;;;;;11.30;7.72;;;;;;;;;;4998593;28;20042;-62
2022/05/18 03:29:18;;;;;;;10.70;7.20;;;15.30;99.90;;;;;;4998667;28;20116;-62
2022/05/18 03:31:44;;;;;;;15.38;8.07;;;15.40;99.90;;;;;;5013884;28;20042;-62
2022/05/18 03:34:10;;;;;;;15.00;8.27;;;15.20;99.90;;;;;;4998725;28;20039;-62
2022/05/18 03:36:36;;;;;;;10.25;7.80;;;15.30;99.90;;;;;;4998942;28;20113;-62
2022/05/18 03:39:02;;;;;;;10.60;7.55;;;15.50;99.90;;;;;;4998330;28;20519;-62
2022/05/18 03:41:28;;;;;;;10.85;7.93;;;15.40;99.90;;;;;;4997806;28;20030;-63
2022/05/18 03:43:54;;;;;;;10.55;7.93;;;15.40;99.90;;;;;;4999080;28;20041;-62
2022/05/18 03:46:20;;;;;;;14.80;8.30;;;15.50;99.90;;;;;;4997048;28;20049;-62
2022/05/18 03:48:45;;;;;;;14.15;7.93;;;15.40;99.90;;;;;;5013955;28;20125;-62
2022/05/18 03:51:14;;;;;;;9.43;7.82;;;15.40;99.90;;;;;;4998632;28;20048;-62
2022/05/18 03:53:41;;;;;;;11.38;7.80;;;15.40;99.90;;;;;;4996744;28;20477;-62
2022/05/18 03:56:08;;;;;;;10.00;7.43;;;15.50;99.90;;;;;;4995737;28;20054;-62
2022/05/18 03:58:33;;;;;;;17.27;8.38;;;15.50;99.90;;;;;;4996592;28;20047;-62
2022/05/18 04:01:01;;;;;;;14.95;8.20;;;15.40;99.90;;;;;;4998630;28;20057;-62
2022/05/18 04:03:28;;;;;;;10.55;7.65;;;15.50;99.90;;;;;;4995463;28;20084;-62
2022/05/18 04:05:53;;;;;;;14.23;9.20;;;15.50;99.90;;;;;;4998610;28;20062;-62
2022/05/18 04:08:19;;;;;;;12.75;8.60;;;15.30;99.90;;;;;;4997103;28;20042;-62
2022/05/18 04:10:46;;;;;;;10.10;8.25;;;15.40;99.90;;;;;;4996806;28;20507;-62
2022/05/18 04:13:18;;;;;;;12.05;8.63;;;15.40;99.90;;;;;;4998114;28;20378;-61
2022/05/18 04:15:44;;;;;;;12.23;8.82;;;15.40;99.90;;;;;;5015167;28;20057;-62
2022/05/18 04:18:10;;;;;;;13.68;9.55;;;15.50;99.90;;;;;;5016616;28;20539;-62
2022/05/18 04:20:36;;;;;;;16.33;10.38;;;15.40;99.90;;;;;;5017677;28;20037;-63
2022/05/18 04:23:01;;;;;;;13.80;9.55;;;15.50;99.90;;;;;;5003935;28;20034;-62
2022/05/18 04:25:28;;;;;;;13.43;8.07;;;15.70;99.90;;;;;;4974385;28;20121;-62
2022/05/18 04:27:55;;;;;;;14.80;9.45;;;15.60;99.90;;;;;;4994728;28;20058;-62
2022/05/18 04:30:24;;;;;;;12.68;8.57;;;15.70;99.90;;;;;;4993869;28;20117;-63
2022/05/18 04:32:49;;;;;;;13.68;9.63;;;15.70;99.90;;;;;;4994058;28;20389;-63
2022/05/18 04:35:17;;;;;;;13.98;8.75;;;16.00;99.90;;;;;;4997995;28;20050;-63
2022/05/18 04:37:43;;;;;;;12.00;9.00;;;;;;;;;;4985054;28;20042;-63
2022/05/18 04:40:10;;;;;;;15.88;9.60;;;16.00;99.90;;;;;;4986055;28;20501;-63
2022/05/18 04:42:36;;;;;;;13.05;9.95;;;;;;;;;;4985978;28;20500;-63
2022/05/18 04:45:03;;;;;;;10.88;8.85;;;16.50;99.90;;;;;;4993810;28;20502;-63
2022/05/18 04:47:28;;;;;;;12.45;8.60;;;16.60;99.90;;;;;;4990260;28;20045;-63
2022/05/18 04:49:56;;;;;;;11.93;8.32;;;16.50;99.90;;;;;;5008353;28;20499;-63
2022/05/18 04:52:21;;;;;;;12.35;8.93;;;16.50;99.90;;;;;;5008461;28;20034;-63
2022/05/18 04:54:48;;;;;;;15.45;9.48;;;16.40;99.90;;;;;;5007042;28;20053;-64
2022/05/18 04:57:14;;;;;;;13.52;9.23;;;16.30;99.90;;;;;;5008881;28;20045;-63
2022/05/18 04:59:40;;;;;;;12.80;9.50;;;16.50;99.90;;;;;;5008563;28;20518;-65
2022/05/18 05:02:06;;;;;;;14.00;9.52;;;16.40;99.90;;;;;;4991241;28;20049;-64
2022/05/18 05:04:32;;;;;;;13.38;9.65;;;16.70;99.90;;;;;;4990280;28;20037;-64
2022/05/18 05:06:57;;;;;;;14.88;9.77;;;16.90;99.90;;;;;;5009029;28;20069;-63
2022/05/18 05:09:24;;;;;;;14.00;9.15;;;16.80;99.90;;;;;;5008538;28;20041;-63
2022/05/18 05:11:51;;;;;;;10.25;9.02;;;17.20;99.90;;;;;;5008778;28;20042;-64
2022/05/18 05:14:16;;;;;;;13.05;8.35;;;17.60;99.90;;;;;;4974712;28;20132;-63
2022/05/18 05:16:42;;;;;;;11.30;7.93;;;17.80;99.90;;;;;;4991113;28;20145;-63
2022/05/18 05:19:08;;;;;;;12.43;9.13;;;18.20;99.90;;;;;;5008330;28;20041;-64
2022/05/18 05:21:35;;;;;;;10.48;7.90;;;18.40;99.90;;;;;;5008363;28;20034;-64
2022/05/18 05:24:04;;;;;;;11.93;8.48;;;18.30;99.90;;;;;;4990019;28;20476;-64
2022/05/18 05:26:29;;;;;;;11.52;8.73;;;18.20;99.90;;;;;;5008347;28;20134;-64
2022/05/18 05:28:55;;;;;;;12.23;8.65;;;18.50;99.90;;;;;;5000636;28;20161;-65
2022/05/18 05:31:20;;;;;;;11.38;7.95;;;18.60;99.90;;;;;;4992415;28;20060;-63
2022/05/18 05:33:46;;;;;;;13.35;8.07;;;18.50;99.90;;;;;;4987988;28;20053;-64
2022/05/18 05:36:12;;;;;;;13.95;8.75;;;18.90;99.90;;;;;;4987877;28;20039;-65
2022/05/18 05:38:38;;;;;;;10.85;7.55;;;19.00;99.90;;;;;;4991576;28;20042;-63
2022/05/18 05:41:04;;;;;;;14.25;8.88;;;18.80;99.90;;;;;;4978666;28;20145;-64
2022/05/18 05:43:31;;;;;;;9.93;7.65;;;20.00;99.90;;;;;;4993746;28;20118;-65
2022/05/18 05:46:02;;;;;;;11.25;8.65;;;18.70;99.90;;;;;;4975217;28;20077;-64
2022/05/18 05:48:30;;;;;;;13.38;9.05;;;19.20;99.90;;;;;;4976576;28;20128;-64
2022/05/18 05:50:57;;;;;;;11.88;8.80;;;19.20;99.90;;;;;;4989066;28;20117;-64
2022/05/18 05:53:23;;;;;;;11.07;8.50;;;18.90;99.90;;;;;;4988843;28;20057;-65
2022/05/18 05:55:50;;;;;;;14.20;8.85;;;19.00;99.90;;;;;;4994189;28;20072;-64
2022/05/18 05:58:17;;;;;;;14.13;9.13;;;19.10;99.90;;;;;;4991154;28;20052;-65
2022/05/18 06:00:43;;;;;;;11.75;8.43;;;19.30;99.90;;;;;;4978678;28;20078;-65
2022/05/18 06:03:09;;;;;;;13.00;8.75;;;19.40;99.90;;;;;;4997807;28;20046;-65
2022/05/18 06:05:34;;;;;;;15.60;8.85;;;19.30;99.90;;;;;;4992566;28;20488;-65
2022/05/18 06:08:00;;;;;;;10.70;8.30;;;19.70;99.90;;;;;;4995914;28;20057;-64
2022/05/18 06:10:25;;;;;;;10.88;7.28;;;19.80;99.90;;;;;;5003920;28;20550;-64
2022/05/18 06:12:51;;;;;;;13.20;7.72;;;20.10;99.90;;;;;;5000215;28;20038;-65
2022/05/18 06:15:17;;;;;;;15.20;8.73;;;20.40;99.90;;;;;;5001302;28;20483;-65
2022/05/18 06:17:42;;;;;;;10.50;7.22;;;20.50;99.90;;;;;;4990708;28;20734;-65
2022/05/18 06:20:08;;;;;;;12.23;8.00;;;20.90;99.90;;;;;;5008743;28;20044;-65
2022/05/18 06:22:34;;;;;;;10.02;7.93;;;20.80;99.90;;;;;;4989995;28;20926;-67
2022/05/18 06:24:59;;;;;;;13.27;8.15;;;21.10;99.90;;;;;;5008674;28;20529;-65
2022/05/18 06:27:25;;;;;;;11.43;8.00;;;21.40;99.90;;;;;;5006299;28;20449;-66
2022/05/18 06:29:51;;;;;;;15.38;8.13;;;21.50;99.90;;;;;;4994849;28;20038;-64
2022/05/18 06:32:17;;;;;;;10.90;7.82;;;21.50;99.90;;;;;;5012860;28;20038;-64
2022/05/18 06:34:44;;;;;;;15.52;8.05;;;21.70;99.90;;;;;;4992676;28;20407;-64
2022/05/18 06:37:11;;;;;;;11.85;8.13;;;21.50;99.90;;;;;;5015199;28;20455;-64
2022/05/18 06:39:37;;;;;;;10.80;7.65;;;21.60;99.90;;;;;;4997908;28;20058;-64
2022/05/18 06:42:02;;;;;;;11.18;7.30;;;21.90;99.90;;;;;;4997902;28;20061;-64
2022/05/18 06:44:28;;;;;;;10.05;7.00;;;21.80;99.90;;;;;;4997732;28;20050;-64
2022/05/18 06:46:58;;;;;;;13.68;8.88;;;21.70;99.90;;;;;;5012585;28;20038;-64
2022/05/18 06:49:26;;;;;;;10.18;7.88;;;21.50;99.90;;;;;;5003923;28;20072;-64
2022/05/18 06:51:52;;;;;;;10.70;8.35;;;21.50;99.90;;;;;;5003770;28;20081;-65
2022/05/18 06:54:18;;;;;;;10.88;8.07;;;21.40;99.90;;;;;;5015264;28;20148;-66
2022/05/18 06:56:44;;;;;;;12.88;7.38;;;21.30;99.90;;;;;;4996904;28;20054;-64
2022/05/18 06:59:12;;;;;;;11.20;7.50;;;21.20;99.90;;;;;;5007858;28;20423;-64
2022/05/18 07:01:38;;;;;;;12.55;8.27;;;21.20;99.90;;;;;;5006428;28;20037;-65
2022/05/18 07:04:05;;;;;;;13.73;7.93;;;21.20;99.90;;;;;;5014351;28;20599;-65
2022/05/18 07:06:37;;;;;;;12.73;8.32;;;21.20;99.90;;;;;;5013399;28;20047;-65
2022/05/18 07:09:05;;;;;;;12.85;8.75;;;21.20;99.90;;;;;;5014309;28;20050;-65
2022/05/18 07:11:31;;;;;;;13.10;7.68;;;21.40;99.90;;;;;;5000111;28;20053;-65
2022/05/18 07:13:58;;;;;;;14.18;8.13;;;21.20;99.90;;;;;;5013781;28;20046;-65
2022/05/18 07:16:26;;;;;;;22.75;8.23;;;21.40;99.90;;;;;;5015367;28;20077;-64
2022/05/18 07:18:53;;;;;;;10.63;7.53;;;21.60;99.90;;;;;;5015187;28;20046;-65
2022/05/18 07:21:21;;;;;;;13.63;7.80;;;21.60;99.90;;;;;;5002369;28;20050;-64
2022/05/18 07:23:47;;;;;;;16.10;7.45;;;21.70;99.90;;;;;;4996187;28;20081;-63
2022/05/18 07:26:14;;;;;;;14.20;7.88;;;21.60;99.90;;;;;;5013626;28;20069;-63
2022/05/18 07:28:40;;;;;;;13.55;8.55;;;21.90;99.90;;;;;;5017112;28;20099;-63
2022/05/18 07:31:06;;;;;;;15.82;6.78;;;21.80;99.90;;;;;;4996173;28;20045;-62
2022/05/18 07:33:32;;;;;;;7.97;5.97;;;23.50;99.90;;;;;;4995326;28;20061;-64
2022/05/18 07:35:59;;;;;;;35.88;7.15;;;22.30;99.90;;;;;;5012492;28;20041;-64
2022/05/18 07:38:27;;;;;;;10.85;5.43;;;22.60;99.90;;;;;;5010489;28;20053;-64
2022/05/18 07:40:52;;;;;;;10.13;6.80;;;22.40;99.90;;;;;;4991079;28;20060;-64
2022/05/18 07:43:18;;;;;;;9.65;6.00;;;22.30;99.90;;;;;;5007582;28;20113;-64
2022/05/18 07:45:45;;;;;;;11.45;6.90;;;22.60;99.90;;;;;;4993679;28;20037;-64
2022/05/18 07:48:11;;;;;;;10.45;6.63;;;22.50;99.90;;;;;;5010513;28;20049;-64
2022/05/18 07:50:36;;;;;;;11.18;6.53;;;22.70;99.90;;;;;;5010663;28;20794;-64
2022/05/18 07:53:02;;;;;;;13.82;7.72;;;22.70;99.90;;;;;;5007608;28;20085;-64
2022/05/18 07:55:28;;;;;;;11.90;6.63;;;22.40;99.90;;;;;;5008618;28;20042;-64
2022/05/18 07:57:54;;;;;;;16.42;7.63;;;22.50;99.90;;;;;;5010088;28;20049;-64
2022/05/18 08:00:22;;;;;;;12.13;6.90;;;22.40;99.90;;;;;;4991748;28;20033;-64
2022/05/18 08:02:47;;;;;;;9.38;7.72;;;22.70;99.90;;;;;;5010026;28;20042;-64
2022/05/18 08:05:13;;;;;;;10.38;6.95;;;22.50;99.90;;;;;;5009732;28;20135;-63
2022/05/18 08:07:45;;;;;;;13.40;7.88;;;24.20;99.90;;;;;;5007226;28;20056;-64
2022/05/18 08:15:45;;;;;;;11.18;7.15;;;22.70;99.90;;;;;;5007365;28;20053;-64
2022/05/18 08:18:11;;;;;;;11.95;7.93;;;22.80;99.90;;;;;;5010055;28;20042;-64
2022/05/18 08:20:39;;;;;;;14.63;8.10;;;22.90;99.90;;;;;;5009809;28;20107;-64
2022/05/18 08:23:06;;;;;;;17.38;8.48;;;22.90;99.90;;;;;;5010300;28;20042;-64
2022/05/18 08:25:32;;;;;;;15.55;8.60;;;22.90;99.90;;;;;;5006452;28;20179;-64
2022/05/18 08:27:58;;;;;;;15.98;8.02;;;23.10;99.90;;;;;;4991013;28;20129;-64
2022/05/18 08:30:24;;;;;;;14.05;8.15;;;22.90;99.90;;;;;;4991902;28;20052;-64
2022/05/18 08:32:50;;;;;;;15.00;8.82;;;23.10;99.90;;;;;;4991032;28;20049;-64
2022/05/18 08:35:17;;;;;;;13.75;8.18;;;23.10;99.90;;;;;;4991324;28;20428;-63
2022/05/18 08:37:48;;;;;;;12.20;7.88;;;23.20;99.90;;;;;;4990298;28;20060;-64
2022/05/18 08:40:28;;;;;;;15.00;7.20;;;23.10;99.90;;;;;;5009401;28;20399;-62
2022/05/18 08:43:00;;;;;;;16.98;6.82;;;23.20;99.90;;;;;;5009456;28;20060;-64
2022/05/18 08:45:30;;;;;;;13.70;8.60;;;23.50;99.90;;;;;;4991224;28;20815;-64
2022/05/18 08:48:14;;;;;;;13.02;7.55;;;23.50;99.90;;;;;;5005211;28;20397;-64
2022/05/18 08:50:39;;;;;;;12.63;8.38;;;23.30;99.90;;;;;;5009660;28;20057;-64
2022/05/18 08:53:27;;;;;;;13.35;8.88;;;23.70;99.90;;;;;;4991601;28;20049;-64
2022/05/18 08:56:03;;;;;;;12.90;9.00;;;23.50;99.90;;;;;;5009147;28;20077;-64
2022/05/18 08:58:29;;;;;;;12.68;8.80;;;23.80;99.90;;;;;;4996412;28;20065;-64
2022/05/18 09:01:06;;;;;;;15.77;9.35;;;23.80;99.90;;;;;;4997787;28;20030;-63
2022/05/18 09:03:45;;;;;;;14.00;9.30;;;23.90;99.90;;;;;;4996283;28;20494;-64
2022/05/18 09:06:23;;;;;;;12.95;9.43;;;24.10;99.90;;;;;;5009068;28;20579;-66
2022/05/18 09:11:40;;;;;;;18.20;10.20;;;24.10;99.90;;;;;;5009743;28;20054;-64
2022/05/18 09:14:09;;;;;;;16.33;9.27;;;24.20;99.90;;;;;;5000541;28;20062;-66
2022/05/18 09:16:39;;;;;;;14.57;9.82;;;23.90;99.90;;;;;;4968865;28;20433;-66
2022/05/18 09:19:11;;;;;;;13.85;9.02;;;24.40;99.90;;;;;;4968954;28;20494;-67
2022/05/18 09:21:49;;;;;;;12.73;9.70;;;24.30;99.90;;;;;;4967733;28;20062;-64
2022/05/18 09:24:25;;;;;;;18.10;10.55;;;24.50;99.90;;;;;;4968676;28;20412;-63
2022/05/18 09:27:07;;;;;;;16.92;10.68;;;24.40;99.90;;;;;;4968515;28;20118;-65
2022/05/18 09:29:49;;;;;;;16.85;10.25;;;24.50;99.90;;;;;;4967998;28;20054;-64
2022/05/18 09:32:21;;;;;;;17.13;9.65;;;24.70;99.90;;;;;;4966944;28;20130;-63
2022/05/18 09:35:05;;;;;;;17.92;11.73;;;24.90;99.90;;;;;;4966337;28;20062;-64
2022/05/18 09:37:36;;;;;;;16.38;10.82;;;24.80;99.90;;;;;;4968090;28;20058;-65
2022/05/18 09:40:20;;;;;;;16.20;10.82;;;25.00;99.90;;;;;;4967285;28;20054;-65
2022/05/18 09:43:13;;;;;;;13.55;10.15;;;24.90;99.90;;;;;;4984347;28;20047;-64
2022/05/18 09:45:43;;;;;;;13.70;9.75;;;24.70;99.90;;;;;;4957881;28;20373;-67
2022/05/18 09:48:16;;;;;;;17.00;11.52;;;25.10;99.90;;;;;;4969146;28;20050;-65
2022/05/18 09:50:45;;;;;;;16.63;11.10;;;25.10;99.90;;;;;;4968187;28;20101;-65
2022/05/18 09:53:11;;;;;;;21.63;12.20;;;25.10;99.90;;;;;;4966177;28;20042;-65
2022/05/18 09:55:37;;;;;;;17.48;12.10;;;25.10;99.90;;;;;;4969455;28;20467;-67
2022/05/18 09:58:06;;;;;;;21.67;11.82;;;25.20;99.90;;;;;;4968118;28;20054;-65
2022/05/18 10:00:34;;;;;;;16.02;12.57;;;25.20;99.90;;;;;;4966612;28;20051;-65
2022/05/18 10:09:15;;;;;;;16.55;11.00;;;25.10;99.90;;;;;;4968151;28;20501;-65
2022/05/18 10:11:42;;;;;;;16.70;11.97;;;25.50;99.90;;;;;;4969571;28;20540;-65
2022/05/18 10:14:14;;;;;;;20.00;12.00;;;26.00;99.90;;;;;;4964026;28;20520;-67
2022/05/18 10:16:47;;;;;;;16.15;11.85;;;25.60;99.90;;;;;;4970060;28;20042;-64
2022/05/18 10:19:26;;;;;;;15.63;9.80;;;25.50;99.90;;;;;;4968211;28;20055;-64
2022/05/18 10:21:58;;;;;;;15.88;11.02;;;25.70;99.90;;;;;;4968598;28;20039;-67
2022/05/18 10:24:47;;;;;;;16.75;11.48;;;25.50;99.90;;;;;;4965531;28;20039;-67
2022/05/18 10:27:22;;;;;;;13.95;11.52;;;25.80;99.90;;;;;;4966509;28;20074;-66
2022/05/18 10:30:08;;;;;;;;;;;25.70;99.90;;;;;;4984098;28;20520;-66
2022/05/18 10:32:36;;;;;;;16.80;11.65;;;25.70;99.90;;;;;;4965117;28;20372;-65
2022/05/18 10:35:02;;;;;;;18.23;10.30;;;25.70;99.90;;;;;;4968902;28;20049;-66
2022/05/18 10:37:30;;;;;;;15.38;9.75;;;26.00;99.90;;;;;;4968275;28;20371;-65
2022/05/18 10:39:59;;;;;;;14.55;10.73;;;25.70;99.90;;;;;;4966815;28;20477;-65
2022/05/18 10:42:41;;;;;;;14.35;8.85;;;25.60;99.90;;;;;;4968395;28;20050;-65
2022/05/18 10:45:25;;;;;;;15.38;9.27;;;25.90;99.90;;;;;;4951444;28;20086;-65
2022/05/18 10:47:51;;;;;;;16.38;9.82;;;25.90;99.90;;;;;;4963303;28;20401;-66
2022/05/18 10:50:24;;;;;;;16.40;10.75;;;26.20;99.90;;;;;;4968146;28;20051;-65
2022/05/18 10:53:00;;;;;;;15.57;10.15;;;26.00;99.90;;;;;;4972758;28;20190;-66
2022/05/18 10:55:28;;;;;;;17.85;9.60;;;25.90;99.90;;;;;;4968810;28;20054;-66
2022/05/18 10:57:57;;;;;;;16.85;12.07;;;26.30;99.90;;;;;;4949280;28;20047;-65
2022/05/18 11:00:35;;;;;;;14.60;11.63;;;26.00;99.90;;;;;;4968558;28;20081;-65
2022/05/18 11:03:14;;;;;;;17.23;11.77;;;25.90;99.90;;;;;;4968825;28;20051;-65
2022/05/18 11:05:47;;;;;;;18.83;10.68;;;25.90;99.90;;;;;;4969250;28;20386;-65
2022/05/18 11:08:16;;;;;;;16.23;11.07;;;26.00;99.90;;;;;;4972520;28;20386;-65
2022/05/18 11:11:26;;;;;;;14.80;11.27;;;25.70;99.90;;;;;;4979762;28;20089;-65
2022/05/18 11:14:03;;;;;;;20.17;10.75;;;26.20;99.90;;;;;;4988686;28;20038;-65
2022/05/18 11:16:45;;;;;;;14.10;9.93;;;26.20;99.90;;;;;;5009513;28;20463;-66
2022/05/18 11:19:29;;;;;;;17.02;9.25;;;25.90;99.90;;;;;;5003990;28;20038;-65
2022/05/18 11:22:06;;;;;;;16.92;10.57;;;26.00;99.90;;;;;;5010017;28;20042;-65
2022/05/18 11:24:39;;;;;;;14.55;9.85;;;26.20;99.90;;;;;;5010060;28;20377;-66
2022/05/18 11:27:27;;;;;;;15.02;10.18;;;27.30;99.90;;;;;;4992018;28;20107;-65
2022/05/18 11:30:05;;;;;;;12.05;8.48;;;26.30;99.90;;;;;;4991123;28;20404;-65
2022/05/18 11:32:46;;;;;;;13.02;8.85;;;26.80;99.90;;;;;;5009620;28;20043;-65
2022/05/18 11:35:20;;;;;;;11.18;8.68;;;26.00;99.90;;;;;;5009802;28;20116;-65
2022/05/18 11:38:08;;;;;;;11.65;7.93;;;26.00;99.90;;;;;;4992677;28;20045;-65
2022/05/18 11:41:02;;;;;;;12.48;8.50;;;26.10;99.90;;;;;;4995322;28;20050;-65
2022/05/18 11:43:46;;;;;;;14.20;8.88;;;25.70;99.90;;;;;;4991133;28;20037;-65
2022/05/18 11:46:14;;;;;;;16.35;9.43;;;26.00;99.90;;;;;;5010730;28;20045;-66
2022/05/18 11:49:10;;;;;;;11.00;7.43;;;26.00;99.90;;;;;;4992682;28;20081;-66
2022/05/18 11:51:41;;;;;;;13.65;9.23;;;24.30;99.90;;;;;;4976712;28;20054;-66
2022/05/18 11:54:44;;;;;;;12.15;8.48;;;26.10;99.90;;;;;;4992581;28;20382;-65
2022/05/18 11:57:46;;;;;;;13.05;8.25;;;26.50;99.90;;;;;;4991303;28;20045;-64
2022/05/18 12:00:56;;;;;;;16.50;10.25;;;26.50;99.90;;;;;;4991091;28;20052;-65
2022/05/18 12:03:48;;;;;;;13.07;8.60;;;26.50;99.90;;;;;;4972642;28;20088;-65
2022/05/18 12:06:28;;;;;;;15.43;8.98;;;26.50;99.90;;;;;;5008854;28;20637;-66
2022/05/18 12:09:24;;;;;;;13.52;8.88;;;26.60;99.90;;;;;;5009140;28;20092;-66
2022/05/18 12:12:17;;;;;;;10.68;8.60;;;26.70;99.90;;;;;;5008280;28;20104;-64
2022/05/18 12:15:06;;;;;;;15.75;8.73;;;26.60;99.90;;;;;;4991393;28;20095;-67
2022/05/18 12:17:56;;;;;;;16.38;10.50;;;26.80;99.90;;;;;;5007554;28;20340;-66
2022/05/18 12:20:51;;;;;;;18.20;9.00;;;26.60;99.90;;;;;;4989971;28;20045;-65
2022/05/18 12:23:21;;;;;;;13.35;8.13;;;26.70;99.90;;;;;;4988680;28;20539;-65
2022/05/18 12:25:48;;;;;;;15.88;8.82;;;26.60;99.90;;;;;;5008055;28;20038;-66
2022/05/18 12:28:14;;;;;;;12.25;9.40;;;26.70;99.90;;;;;;4991016;28;20048;-66
2022/05/18 12:30:42;;;;;;;15.52;11.27;;;26.70;99.90;;;;;;5009133;28;20496;-64
2022/05/18 12:33:10;;;;;;;16.85;10.45;;;26.70;99.90;;;;;;4990653;28;20060;-65
2022/05/18 12:35:35;;;;;;;16.33;11.60;;;28.30;99.90;;;;;;4990163;28;20129;-66
2022/05/18 12:38:25;;;;;;;17.48;12.82;;;26.50;99.90;;;;;;5007572;28;20462;-67
2022/05/18 12:40:57;;;;;;;19.27;12.73;;;26.50;99.90;;;;;;5006207;28;20503;-66
2022/05/18 12:43:36;;;;;;;19.95;14.80;;;26.30;99.90;;;;;;5006239;28;20476;-66
2022/05/18 12:46:10;;;;;;;22.77;14.43;;;27.70;99.90;;;;;;5007640;28;20558;-66
2022/05/18 12:48:48;;;;;;;24.13;16.67;;;26.20;99.90;;;;;;4991250;28;20057;-65
2022/05/18 12:51:32;;;;;;;24.50;17.88;;;26.50;99.90;;;;;;5000045;28;20050;-65
2022/05/18 12:54:10;;;;;;;24.98;17.67;;;26.20;99.90;;;;;;4989078;28;20037;-65
2022/05/18 12:56:36;;;;;;;23.50;16.98;;;26.30;99.90;;;;;;4988380;28;20057;-65
2022/05/18 12:59:15;;;;;;;26.67;17.48;;;26.20;99.90;;;;;;5007014;28;20080;-66
2022/05/18 13:01:44;;;;;;;25.17;16.73;;;26.30;99.90;;;;;;4989145;28;20642;-67
2022/05/18 13:04:10;;;;;;;23.88;15.18;;;26.10;99.90;;;;;;4997558;28;20247;-65
2022/05/18 13:06:35;;;;;;;27.80;16.23;;;26.30;99.90;;;;;;4995938;28;20037;-65
2022/05/18 13:09:31;;;;;;;19.15;14.82;;;25.90;99.90;;;;;;4994864;28;20403;-65
2022/05/18 13:12:26;;;;;;;19.58;13.65;;;25.90;99.90;;;;;;4995548;28;20104;-63
2022/05/18 13:14:58;;;;;;;24.88;15.35;;;26.20;99.90;;;;;;4997330;28;20058;-63